createdAt,value
2022-08-05T00:00:46.650Z,12.50
2022-08-05T00:03:16.552Z,12.98
2022-08-05T00:06:05.002Z,12.35
2022-08-05T00:08:34.958Z,12.65
2022-08-05T00:11:07.507Z,13.90
2022-08-05T00:13:53.038Z,17.23
2022-08-05T00:16:20.103Z,15.70
2022-08-05T00:19:04.103Z,15.85
2022-08-05T00:21:30.755Z,14.23
2022-08-05T00:24:10.306Z,14.52
2022-08-05T00:26:37.858Z,13.83
2022-08-05T00:29:04.284Z,11.65
2022-08-05T00:31:53.135Z,10.30
2022-08-05T00:34:53.876Z,10.43
2022-08-05T00:37:11.095Z,10.07
2022-08-05T00:39:57.211Z,12.20
2022-08-05T00:42:33.227Z,11.20
2022-08-05T00:45:00.539Z,11.00
2022-08-05T00:47:31.550Z,10.77
2022-08-05T00:50:13.413Z,11.63
2022-08-05T00:52:40.011Z,8.97
2022-08-05T00:55:06.655Z,11.98
2022-08-05T00:57:38.411Z,11.30
2022-08-05T01:00:20.026Z,10.98
2022-08-05T01:02:50.160Z,9.18
2022-08-05T01:05:16.706Z,10.30
2022-08-05T01:08:41.410Z,10.13
2022-08-05T01:10:52.265Z,8.55
2022-08-05T01:13:57.973Z,10.70
2022-08-05T01:16:49.520Z,10.05
2022-08-05T01:19:22.286Z,9.10
2022-08-05T01:22:34.752Z,9.57
2022-08-05T01:25:20.942Z,10.68
2022-08-05T01:28:16.759Z,9.95
2022-08-05T01:30:55.108Z,10.63
2022-08-05T01:33:26.209Z,11.13
2022-08-05T01:35:55.608Z,10.27
2022-08-05T01:38:27.120Z,10.15
2022-08-05T01:40:58.679Z,12.95
2022-08-05T01:43:28.078Z,12.23
2022-08-05T01:45:56.413Z,10.13
2022-08-05T01:48:25.791Z,11.05
2022-08-05T01:50:55.423Z,14.13
2022-08-05T01:53:57.887Z,12.77
2022-08-05T01:56:13.792Z,11.57
2022-08-05T01:59:03.499Z,12.83
2022-08-05T02:01:39.987Z,14.23
2022-08-05T02:04:10.827Z,12.93
2022-08-05T02:06:39.094Z,15.38
2022-08-05T02:09:07.240Z,14.60
2022-08-05T02:11:48.009Z,14.77
2022-08-05T02:14:32.327Z,12.82
2022-08-05T02:17:06.655Z,13.75
2022-08-05T02:19:42.687Z,14.45
2022-08-05T02:22:26.197Z,14.30
2022-08-05T02:25:02.004Z,13.33
2022-08-05T02:27:59.129Z,11.98
2022-08-05T02:30:17.828Z,15.30
2022-08-05T02:32:48.058Z,14.27
2022-08-05T02:35:27.788Z,15.60
2022-08-05T02:37:56.608Z,14.93
2022-08-05T02:40:26.910Z,15.00
2022-08-05T02:42:55.564Z,12.63
2022-08-05T02:45:25.231Z,15.68
2022-08-05T02:48:11.921Z,14.80
2022-08-05T02:50:43.862Z,13.87
2022-08-05T02:53:18.636Z,14.13
2022-08-05T02:55:54.191Z,16.10
2022-08-05T02:58:27.175Z,13.05
2022-08-05T03:01:00.714Z,15.05
2022-08-05T03:03:34.086Z,15.30
2022-08-05T03:06:57.090Z,13.68
2022-08-05T03:09:04.956Z,12.60
2022-08-05T03:11:56.316Z,14.52
2022-08-05T03:14:17.940Z,14.82
2022-08-05T03:16:45.636Z,15.87
2022-08-05T03:19:20.367Z,12.80
2022-08-05T03:21:59.213Z,15.82
2022-08-05T03:24:30.215Z,12.85
2022-08-05T03:26:58.353Z,14.85
2022-08-05T03:29:24.799Z,14.83
2022-08-05T03:32:11.762Z,15.30
2022-08-05T03:34:41.115Z,15.43
2022-08-05T03:37:07.703Z,12.90
2022-08-05T03:39:38.300Z,16.65
2022-08-05T03:42:20.710Z,13.83
2022-08-05T03:44:47.148Z,15.35
2022-08-05T03:47:14.075Z,13.98
2022-08-05T03:49:51.606Z,14.52
2022-08-05T03:52:36.506Z,19.25
2022-08-05T03:56:06.066Z,16.00
2022-08-05T03:58:10.679Z,14.48
2022-08-05T04:00:41.961Z,13.55
2022-08-05T04:03:15.056Z,14.40
2022-08-05T04:05:55.739Z,17.63
2022-08-05T04:08:30.277Z,13.67
2022-08-05T04:11:04.618Z,15.57
2022-08-05T04:13:49.377Z,15.35
2022-08-05T04:16:24.890Z,17.42
2022-08-05T04:18:54.029Z,13.75
2022-08-05T04:22:10.284Z,14.73
2022-08-05T04:24:14.220Z,13.15
2022-08-05T04:26:46.703Z,14.93
2022-08-05T04:29:13.141Z,13.68
2022-08-05T04:31:40.933Z,12.52
2022-08-05T04:34:31.830Z,13.20
2022-08-05T04:36:54.466Z,12.88
2022-08-05T04:39:21.685Z,14.50
2022-08-05T04:41:51.028Z,14.27
2022-08-05T04:44:29.393Z,15.20
2022-08-05T04:46:58.524Z,14.20
2022-08-05T04:49:39.148Z,13.20
2022-08-05T04:52:11.734Z,13.60
2022-08-05T04:54:38.136Z,15.38
2022-08-05T04:57:04.604Z,16.90
2022-08-05T04:59:38.528Z,13.53
2022-08-05T05:02:36.082Z,14.20
2022-08-05T05:05:01.694Z,15.10
2022-08-05T05:07:29.615Z,13.30
2022-08-05T05:09:59.038Z,15.52
2022-08-05T05:12:29.129Z,12.23
2022-08-05T05:14:55.568Z,14.77
2022-08-05T05:17:24.518Z,15.07
2022-08-05T05:20:09.147Z,12.18
2022-08-05T05:22:36.277Z,13.93
2022-08-05T05:25:17.114Z,12.07
2022-08-05T05:27:53.788Z,12.45
2022-08-05T05:30:30.702Z,11.43
2022-08-05T05:33:08.879Z,10.55
2022-08-05T05:35:47.573Z,10.30
2022-08-05T05:38:14.943Z,11.00
2022-08-05T05:40:51.945Z,11.20
2022-08-05T05:43:57.015Z,13.00
2022-08-05T05:46:15.631Z,13.38
2022-08-05T05:48:44.033Z,10.93
2022-08-05T05:51:15.246Z,12.37
2022-08-05T05:53:54.521Z,11.25
2022-08-05T05:56:33.110Z,11.98
2022-08-05T05:59:03.361Z,9.70
2022-08-05T06:01:37.020Z,9.70
2022-08-05T06:04:07.134Z,11.63
2022-08-05T06:06:34.982Z,10.63
2022-08-05T06:09:04.372Z,12.73
2022-08-05T06:11:31.786Z,10.95
2022-08-05T06:14:00.163Z,8.20
2022-08-05T06:16:36.790Z,9.83
2022-08-05T06:19:05.767Z,10.52
2022-08-05T06:21:37.268Z,9.57
2022-08-05T06:24:06.302Z,9.25
2022-08-05T06:26:37.717Z,9.10
2022-08-05T06:29:23.650Z,9.13
2022-08-05T06:31:52.385Z,10.95
2022-08-05T06:34:19.858Z,8.95
2022-08-05T06:36:57.429Z,9.23
2022-08-05T06:39:27.236Z,10.00
2022-08-05T06:41:58.960Z,7.10
2022-08-05T06:44:26.000Z,10.23
2022-08-05T06:46:52.721Z,8.73
2022-08-05T06:49:59.842Z,9.15
2022-08-05T06:52:07.730Z,9.45
2022-08-05T06:54:54.099Z,8.00
2022-08-05T06:57:58.163Z,8.70
2022-08-05T07:00:07.722Z,9.73
2022-08-05T07:02:46.704Z,10.32
2022-08-05T07:05:15.410Z,6.88
2022-08-05T07:07:48.795Z,7.50
2022-08-05T07:10:16.298Z,8.38
2022-08-05T07:13:01.978Z,6.85
2022-08-05T07:16:01.977Z,7.90
2022-08-05T07:18:31.853Z,6.13
2022-08-05T07:20:58.571Z,7.87
2022-08-05T07:23:31.408Z,6.57
2022-08-05T07:25:57.801Z,7.65
2022-08-05T07:28:25.188Z,6.60
2022-08-05T07:30:55.207Z,5.75
2022-08-05T07:33:35.090Z,4.60
2022-08-05T07:36:20.569Z,7.07
2022-08-05T07:38:48.946Z,5.75
2022-08-05T07:42:08.969Z,6.22
2022-08-05T07:44:14.027Z,7.70
2022-08-05T07:46:48.528Z,7.23
2022-08-05T07:49:18.149Z,5.68
2022-08-05T07:51:54.483Z,6.90
2022-08-05T07:54:31.355Z,5.97
2022-08-05T07:57:22.539Z,4.38
2022-08-05T07:59:48.797Z,5.37
2022-08-05T08:02:17.626Z,5.45
2022-08-05T08:04:49.221Z,5.35
2022-08-05T08:07:22.755Z,6.00
2022-08-05T08:09:52.339Z,5.28
2022-08-05T08:12:33.348Z,4.33
2022-08-05T08:15:09.688Z,6.20
2022-08-05T08:17:46.096Z,4.45
2022-08-05T08:20:44.221Z,4.70
2022-08-05T08:23:03.991Z,4.93
2022-08-05T08:25:58.920Z,5.03
2022-08-05T08:28:18.708Z,4.82
2022-08-05T08:31:02.378Z,5.28
2022-08-05T08:33:35.918Z,4.68
2022-08-05T08:36:38.708Z,4.80
2022-08-05T08:38:55.159Z,4.60
2022-08-05T08:41:26.321Z,3.95
2022-08-05T08:45:21.191Z,4.55
2022-08-05T08:46:57.825Z,4.60
2022-08-05T08:50:22.384Z,4.88
2022-08-05T08:52:17.259Z,5.10
2022-08-05T08:54:44.618Z,5.45
2022-08-05T08:57:13.376Z,4.55
2022-08-05T08:59:41.738Z,4.20
2022-08-05T09:02:14.493Z,5.82
2022-08-05T09:04:58.497Z,7.87
2022-08-05T09:07:39.843Z,4.03
2022-08-05T09:10:17.701Z,5.47
2022-08-05T09:12:45.541Z,6.25
2022-08-05T09:15:17.837Z,4.07
2022-08-05T09:17:49.757Z,4.60
2022-08-05T09:20:36.778Z,3.78
2022-08-05T09:23:19.646Z,3.33
2022-08-05T09:26:02.612Z,4.00
2022-08-05T09:28:33.583Z,3.75
2022-08-05T09:31:44.173Z,5.03
2022-08-05T09:34:11.796Z,3.40
2022-08-05T09:36:54.014Z,3.03
2022-08-05T09:39:27.573Z,4.53
2022-08-05T09:42:08.559Z,3.25
2022-08-05T09:44:41.177Z,5.00
2022-08-05T09:47:17.987Z,4.78
2022-08-05T09:50:02.164Z,3.60
2022-08-05T09:52:34.309Z,3.40
2022-08-05T09:55:56.091Z,4.85
2022-08-05T09:57:58.559Z,3.80
2022-08-05T10:00:25.922Z,4.65
2022-08-05T10:02:58.385Z,3.15
2022-08-05T10:05:28.895Z,3.28
2022-08-05T10:08:10.644Z,3.70
2022-08-05T10:10:50.231Z,3.77
2022-08-05T10:13:45.627Z,6.30
2022-08-05T10:16:41.686Z,4.85
2022-08-05T10:19:23.836Z,4.03
2022-08-05T10:22:07.854Z,3.25
2022-08-05T10:24:39.785Z,3.57
2022-08-05T10:27:07.609Z,4.68
2022-08-05T10:30:41.494Z,3.70
2022-08-05T10:32:51.790Z,3.90
2022-08-05T10:35:10.540Z,3.67
2022-08-05T10:37:44.831Z,2.20
2022-08-05T10:40:34.437Z,4.20
2022-08-05T10:43:35.876Z,3.78
2022-08-05T10:46:07.122Z,7.68
2022-08-05T10:48:38.434Z,3.97
2022-08-05T10:51:23.088Z,4.13
2022-08-05T10:54:00.871Z,3.50
2022-08-05T10:56:30.344Z,3.47
2022-08-05T10:59:12.190Z,4.72
2022-08-05T11:01:55.033Z,2.85
2022-08-05T11:04:31.072Z,3.93
2022-08-05T11:06:58.311Z,3.45
2022-08-05T11:09:39.246Z,2.78
2022-08-05T11:12:24.755Z,3.10
2022-08-05T11:15:19.300Z,3.95
2022-08-05T11:18:10.977Z,3.87
2022-08-05T11:20:46.328Z,3.40
2022-08-05T11:23:33.231Z,3.33
2022-08-05T11:26:11.911Z,3.58
2022-08-05T11:28:40.065Z,3.45
2022-08-05T11:31:06.877Z,3.70
2022-08-05T11:33:46.206Z,3.30
2022-08-05T11:36:34.440Z,2.55
2022-08-05T11:39:04.201Z,2.90
2022-08-05T11:42:01.430Z,2.55
2022-08-05T11:44:52.730Z,2.33
2022-08-05T11:47:14.224Z,3.05
2022-08-05T11:49:49.801Z,3.15
2022-08-05T11:52:29.310Z,2.10
2022-08-05T11:54:58.304Z,2.00
2022-08-05T11:57:30.508Z,2.33
2022-08-05T11:59:58.847Z,3.13
2022-08-05T12:02:33.059Z,2.40
2022-08-05T12:05:07.146Z,2.67
2022-08-05T12:08:09.296Z,3.50
2022-08-05T12:10:43.690Z,2.93
2022-08-05T12:13:17.105Z,2.90
2022-08-05T12:15:49.684Z,2.70
2022-08-05T12:18:30.918Z,3.13
2022-08-05T12:21:17.404Z,4.10
2022-08-05T12:24:06.903Z,3.40
2022-08-05T12:26:54.141Z,4.35
2022-08-05T12:29:25.910Z,3.70
2022-08-05T12:31:55.176Z,4.13
2022-08-05T12:34:26.725Z,5.22
2022-08-05T12:36:54.617Z,4.63
2022-08-05T12:39:23.642Z,3.53
2022-08-05T12:42:00.922Z,3.08
2022-08-05T12:44:33.333Z,3.72
2022-08-05T12:47:02.146Z,4.00
2022-08-05T12:50:02.254Z,3.27
2022-08-05T12:52:39.703Z,3.95
2022-08-05T12:55:22.676Z,4.53
2022-08-05T12:58:48.828Z,5.57
2022-08-05T13:01:59.783Z,4.72
2022-08-05T13:03:41.616Z,3.40
2022-08-05T13:06:12.394Z,5.30
2022-08-05T13:08:38.796Z,4.18
2022-08-05T13:11:07.747Z,3.08
2022-08-05T13:14:06.743Z,3.53
2022-08-05T13:16:28.750Z,7.77
2022-08-05T13:18:58.442Z,2.53
2022-08-05T13:21:28.411Z,3.70
2022-08-05T13:24:05.039Z,4.03
2022-08-05T13:26:31.501Z,3.55
2022-08-05T13:28:59.188Z,3.80
2022-08-05T13:31:33.992Z,3.47
2022-08-05T13:34:23.963Z,3.38
2022-08-05T13:36:51.918Z,3.00
2022-08-05T13:40:13.055Z,3.45
2022-08-05T13:42:04.952Z,5.47
2022-08-05T13:44:32.372Z,2.40
2022-08-05T13:47:04.848Z,2.70
2022-08-05T13:49:35.559Z,3.72
2022-08-05T13:52:12.557Z,4.20
2022-08-05T13:54:39.268Z,5.27
2022-08-05T13:57:06.442Z,7.15
2022-08-05T13:59:32.929Z,3.00
2022-08-05T14:02:00.718Z,3.05
2022-08-05T14:04:49.205Z,3.88
2022-08-05T14:08:00.611Z,4.20
2022-08-05T14:10:19.085Z,3.60
2022-08-05T14:12:55.704Z,4.03
2022-08-05T14:16:07.007Z,4.10
2022-08-05T14:18:15.196Z,2.95
2022-08-05T14:20:48.743Z,4.07
2022-08-05T14:23:24.883Z,4.57
2022-08-05T14:25:59.047Z,4.03
2022-08-05T14:28:29.591Z,2.80
2022-08-05T14:30:57.396Z,2.60
2022-08-05T14:33:24.187Z,3.30
2022-08-05T14:35:54.117Z,4.00
2022-08-05T14:38:27.879Z,4.90
2022-08-05T14:41:00.781Z,4.90
2022-08-05T14:43:59.084Z,4.28
2022-08-05T14:46:13.663Z,3.27
2022-08-05T14:48:40.456Z,3.45
2022-08-05T14:51:06.927Z,3.78
2022-08-05T14:53:34.883Z,4.30
2022-08-05T14:56:11.104Z,2.80
2022-08-05T14:58:38.404Z,4.20
2022-08-05T15:01:16.260Z,3.13
2022-08-05T15:03:43.415Z,4.57
2022-08-05T15:06:15.619Z,5.50
2022-08-05T15:08:58.055Z,5.03
2022-08-05T15:11:51.489Z,4.43
2022-08-05T15:14:20.292Z,3.55
2022-08-05T15:16:59.330Z,6.43
2022-08-05T15:19:26.111Z,6.43
2022-08-05T15:21:52.597Z,5.15
2022-08-05T15:24:19.004Z,3.60
2022-08-05T15:26:46.528Z,4.07
2022-08-05T15:29:15.072Z,3.85
2022-08-05T15:31:41.631Z,3.88
2022-08-05T15:34:32.490Z,4.53
2022-08-05T15:36:54.484Z,3.63
2022-08-05T15:41:03.269Z,4.38
2022-08-05T15:42:54.008Z,4.05
2022-08-05T15:44:54.930Z,3.80
2022-08-05T15:47:22.580Z,3.90
2022-08-05T15:49:56.032Z,5.50
2022-08-05T15:52:51.880Z,5.28
2022-08-05T15:55:17.487Z,5.43
2022-08-05T15:57:46.099Z,3.97
2022-08-05T16:00:32.583Z,3.88
2022-08-05T16:03:04.728Z,6.83
2022-08-05T16:05:31.863Z,7.30
2022-08-05T16:07:58.265Z,2.97
2022-08-05T16:10:26.888Z,5.30
2022-08-05T16:12:55.997Z,4.43
2022-08-05T16:15:23.295Z,3.93
2022-08-05T16:17:57.905Z,4.78
2022-08-05T16:20:25.284Z,4.50
2022-08-05T16:22:51.691Z,5.13
2022-08-05T16:25:18.251Z,4.07
2022-08-05T16:28:00.075Z,3.67
2022-08-05T16:30:31.871Z,3.72
2022-08-05T16:32:59.775Z,3.78
2022-08-05T16:35:28.293Z,5.32
2022-08-05T16:38:02.446Z,4.43
2022-08-05T16:40:52.052Z,4.03
2022-08-05T16:43:27.512Z,3.58
2022-08-05T16:46:06.977Z,3.42
2022-08-05T16:48:39.496Z,3.00
2022-08-05T16:51:09.256Z,2.92
2022-08-05T16:54:05.395Z,4.43
2022-08-05T16:56:23.432Z,3.67
2022-08-05T16:58:50.363Z,3.47
2022-08-05T17:01:16.918Z,3.97
2022-08-05T17:03:45.706Z,4.18
2022-08-05T17:06:12.472Z,3.20
2022-08-05T17:08:52.903Z,3.63
2022-08-05T17:11:23.880Z,3.88
2022-08-05T17:14:05.923Z,2.47
2022-08-05T17:16:36.051Z,4.72
2022-08-05T17:19:07.533Z,4.57
2022-08-05T17:21:37.089Z,5.00
2022-08-05T17:24:19.310Z,4.82
2022-08-05T17:26:57.469Z,2.60
2022-08-05T17:29:33.152Z,3.50
2022-08-05T17:32:06.647Z,4.20
2022-08-05T17:34:35.209Z,3.72
2022-08-05T17:37:02.152Z,5.13
2022-08-05T17:39:34.162Z,2.53
2022-08-05T17:42:18.316Z,6.25
2022-08-05T17:44:50.066Z,4.47
2022-08-05T17:47:21.965Z,3.35
2022-08-05T17:50:00.475Z,5.68
2022-08-05T17:52:32.377Z,2.95
2022-08-05T17:54:59.329Z,4.70
2022-08-05T17:57:25.820Z,4.93
2022-08-05T18:00:05.583Z,3.80
2022-08-05T18:02:34.197Z,3.97
2022-08-05T18:05:03.716Z,4.40
2022-08-05T18:07:41.388Z,4.75
2022-08-05T18:10:10.969Z,3.30
2022-08-05T18:12:38.164Z,3.38
2022-08-05T18:15:05.127Z,3.08
2022-08-05T18:18:00.394Z,5.60
2022-08-05T18:20:19.341Z,2.55
2022-08-05T18:22:57.399Z,3.33
2022-08-05T18:25:25.118Z,4.25
2022-08-05T18:27:52.232Z,3.22
2022-08-05T18:30:19.495Z,3.75
2022-08-05T18:32:53.103Z,4.35
2022-08-05T18:35:20.425Z,3.13
2022-08-05T18:38:07.487Z,4.60
2022-08-05T18:41:55.215Z,3.50
2022-08-05T18:43:21.495Z,2.22
2022-08-05T18:45:49.625Z,3.03
2022-08-05T18:48:31.180Z,2.60
2022-08-05T18:52:04.400Z,4.15
2022-08-05T18:54:05.802Z,3.63
2022-08-05T18:56:32.836Z,2.58
2022-08-05T18:59:01.017Z,5.57
2022-08-05T19:01:33.596Z,2.87
2022-08-05T19:04:14.285Z,2.75
2022-08-05T19:06:50.645Z,3.92
2022-08-05T19:09:17.088Z,2.50
2022-08-05T19:12:00.726Z,3.15
2022-08-05T19:14:59.610Z,3.53
2022-08-05T19:17:14.642Z,3.05
2022-08-05T19:19:46.489Z,3.47
2022-08-05T19:22:17.150Z,4.07
2022-08-05T19:24:55.796Z,5.20
2022-08-05T19:27:24.413Z,5.87
2022-08-05T19:29:57.198Z,2.72
2022-08-05T19:32:26.273Z,3.08
2022-08-05T19:34:55.115Z,3.58
2022-08-05T19:37:35.015Z,5.05
2022-08-05T19:40:10.757Z,3.63
2022-08-05T19:42:38.723Z,3.78
2022-08-05T19:45:07.014Z,2.63
2022-08-05T19:47:34.866Z,4.40
2022-08-05T19:50:04.870Z,3.30
2022-08-05T19:52:34.315Z,2.80
2022-08-05T19:55:06.824Z,3.63
2022-08-05T19:57:47.325Z,3.70
2022-08-05T20:00:20.786Z,3.95
2022-08-05T20:02:47.400Z,18.20
2022-08-05T20:05:16.432Z,6.57
2022-08-05T20:07:55.029Z,5.47
2022-08-05T20:10:25.139Z,4.43
2022-08-05T20:12:51.706Z,4.75
2022-08-05T20:15:47.917Z,14.48
2022-08-05T20:18:10.384Z,12.23
2022-08-05T20:20:55.236Z,7.70
2022-08-05T20:23:23.083Z,4.53
2022-08-05T20:25:49.497Z,3.67
2022-08-05T20:28:19.015Z,4.35
2022-08-05T20:30:45.497Z,4.40
2022-08-05T20:33:14.272Z,4.28
2022-08-05T20:35:45.486Z,6.95
2022-08-05T20:38:14.433Z,4.32
2022-08-05T20:40:50.489Z,3.90
2022-08-05T20:43:17.395Z,4.20
2022-08-05T20:46:00.435Z,9.43
2022-08-05T20:48:27.703Z,4.20
2022-08-05T20:50:54.342Z,4.10
2022-08-05T20:53:36.630Z,4.20
2022-08-05T20:56:08.309Z,4.50
2022-08-05T20:58:35.927Z,4.32
2022-08-05T21:01:03.877Z,5.60
2022-08-05T21:03:34.516Z,3.35
2022-08-05T21:06:01.676Z,2.60
2022-08-05T21:08:41.254Z,4.97
2022-08-05T21:11:13.011Z,3.22
2022-08-05T21:13:59.505Z,3.95
2022-08-05T21:16:30.013Z,3.80
2022-08-05T21:18:56.700Z,4.55
2022-08-05T21:21:26.811Z,4.17
2022-08-05T21:24:07.218Z,2.95
2022-08-05T21:26:33.764Z,4.35
2022-08-05T21:29:03.516Z,4.78
2022-08-05T21:31:41.100Z,4.32
2022-08-05T21:34:08.488Z,3.53
2022-08-05T21:36:37.173Z,3.88
2022-08-05T21:39:03.804Z,3.50
2022-08-05T21:41:34.274Z,4.38
2022-08-05T21:44:04.247Z,4.55
2022-08-05T21:46:34.647Z,3.57
2022-08-05T21:49:07.310Z,3.90
2022-08-05T21:52:22.735Z,4.47
2022-08-05T21:54:27.996Z,5.32
2022-08-05T21:57:15.394Z,7.93
2022-08-05T22:00:02.935Z,4.07
2022-08-05T22:02:30.205Z,5.30
2022-08-05T22:04:58.322Z,7.05
2022-08-05T22:07:40.125Z,7.85
2022-08-05T22:10:12.576Z,7.00
2022-08-05T22:12:40.173Z,5.40
2022-08-05T22:15:16.342Z,4.82
2022-08-05T22:17:48.731Z,3.95
2022-08-05T22:20:26.445Z,5.03
2022-08-05T22:23:17.214Z,4.80
2022-08-05T22:26:10.773Z,3.90
2022-08-05T22:28:38.157Z,4.25
2022-08-05T22:31:05.778Z,4.80
2022-08-05T22:33:57.973Z,4.68
2022-08-05T22:36:19.047Z,4.93
2022-08-05T22:38:50.286Z,4.77
2022-08-05T22:42:04.766Z,4.18
2022-08-05T22:44:08.325Z,4.30
2022-08-05T22:46:39.757Z,4.10
2022-08-05T22:49:23.225Z,4.45
2022-08-05T22:52:06.401Z,4.33
2022-08-05T22:54:35.227Z,4.57
2022-08-05T22:57:01.751Z,6.43
2022-08-05T22:59:43.940Z,4.82
2022-08-05T23:02:16.914Z,4.75
2022-08-05T23:04:44.007Z,4.07
2022-08-05T23:07:18.136Z,5.35
2022-08-05T23:09:57.198Z,7.05
2022-08-05T23:12:32.490Z,5.10
2022-08-05T23:15:03.627Z,4.68
2022-08-05T23:17:35.019Z,5.63
2022-08-05T23:20:17.431Z,8.55
2022-08-05T23:22:48.352Z,4.28
2022-08-05T23:25:51.088Z,5.00
2022-08-05T23:28:06.889Z,4.55
2022-08-05T23:30:39.582Z,4.80
2022-08-05T23:33:07.407Z,5.13
2022-08-05T23:35:50.021Z,4.55
2022-08-05T23:38:16.996Z,5.25
2022-08-05T23:40:49.786Z,8.23
2022-08-05T23:43:25.685Z,6.17
2022-08-05T23:46:19.945Z,5.38
2022-08-05T23:49:00.973Z,4.95
2022-08-05T23:51:53.474Z,5.72
2022-08-05T23:54:29.848Z,5.07
2022-08-05T23:57:03.381Z,4.97
